sensor_id;sensor_type;location;lat;lon;timestamp;P1;durP1;ratioP1;P2;durP2;ratioP2
33246;SDS011;19606;50.108;19.804;2022-08-25T00:00:39;33.25;;;12.05;;
33246;SDS011;19606;50.108;19.804;2022-08-25T00:03:05;27.05;;;12.27;;
33246;SDS011;19606;50.108;19.804;2022-08-25T00:05:32;27.70;;;13.70;;
33246;SDS011;19606;50.108;19.804;2022-08-25T00:07:58;21.15;;;11.55;;
33246;SDS011;19606;50.108;19.804;2022-08-25T00:10:24;26.95;;;13.07;;
33246;SDS011;19606;50.108;19.804;2022-08-25T00:12:50;24.55;;;12.10;;
33246;SDS011;19606;50.108;19.804;2022-08-25T00:15:17;31.17;;;13.93;;
33246;SDS011;19606;50.108;19.804;2022-08-25T00:17:43;25.95;;;12.18;;
33246;SDS011;19606;50.108;19.804;2022-08-25T00:20:09;33.38;;;13.77;;
33246;SDS011;19606;50.108;19.804;2022-08-25T00:22:36;25.95;;;13.18;;
33246;SDS011;19606;50.108;19.804;2022-08-25T00:25:02;37.88;;;13.57;;
33246;SDS011;19606;50.108;19.804;2022-08-25T00:27:28;32.05;;;13.65;;
33246;SDS011;19606;50.108;19.804;2022-08-25T00:29:54;29.33;;;13.70;;
33246;SDS011;19606;50.108;19.804;2022-08-25T00:32:20;36.22;;;13.32;;
33246;SDS011;19606;50.108;19.804;2022-08-25T00:34:48;34.15;;;15.45;;
33246;SDS011;19606;50.108;19.804;2022-08-25T00:37:14;35.20;;;15.43;;
33246;SDS011;19606;50.108;19.804;2022-08-25T00:39:40;28.45;;;13.77;;
33246;SDS011;19606;50.108;19.804;2022-08-25T00:42:08;23.73;;;13.25;;
33246;SDS011;19606;50.108;19.804;2022-08-25T00:44:34;27.40;;;12.65;;
33246;SDS011;19606;50.108;19.804;2022-08-25T00:47:01;26.38;;;13.05;;
33246;SDS011;19606;50.108;19.804;2022-08-25T00:49:42;33.50;;;14.63;;
33246;SDS011;19606;50.108;19.804;2022-08-25T00:52:12;33.42;;;13.57;;
33246;SDS011;19606;50.108;19.804;2022-08-25T00:57:05;26.40;;;12.73;;
33246;SDS011;19606;50.108;19.804;2022-08-25T00:59:31;27.75;;;12.05;;
33246;SDS011;19606;50.108;19.804;2022-08-25T01:01:58;29.52;;;13.15;;
33246;SDS011;19606;50.108;19.804;2022-08-25T01:04:24;25.38;;;12.75;;
33246;SDS011;19606;50.108;19.804;2022-08-25T01:06:51;27.23;;;12.88;;
33246;SDS011;19606;50.108;19.804;2022-08-25T01:09:17;27.75;;;12.75;;
33246;SDS011;19606;50.108;19.804;2022-08-25T01:11:44;24.15;;;12.95;;
33246;SDS011;19606;50.108;19.804;2022-08-25T01:14:12;30.90;;;11.70;;
33246;SDS011;19606;50.108;19.804;2022-08-25T01:16:39;31.98;;;12.32;;
33246;SDS011;19606;50.108;19.804;2022-08-25T01:19:07;31.50;;;12.68;;
33246;SDS011;19606;50.108;19.804;2022-08-25T01:21:40;34.63;;;14.07;;
33246;SDS011;19606;50.108;19.804;2022-08-25T01:24:06;29.60;;;13.30;;
33246;SDS011;19606;50.108;19.804;2022-08-25T01:26:34;28.85;;;13.63;;
33246;SDS011;19606;50.108;19.804;2022-08-25T01:29:01;34.90;;;14.88;;
33246;SDS011;19606;50.108;19.804;2022-08-25T01:31:45;42.60;;;14.70;;
33246;SDS011;19606;50.108;19.804;2022-08-25T01:34:12;35.55;;;14.85;;
33246;SDS011;19606;50.108;19.804;2022-08-25T01:36:39;35.10;;;15.23;;
33246;SDS011;19606;50.108;19.804;2022-08-25T01:39:05;30.58;;;15.48;;
33246;SDS011;19606;50.108;19.804;2022-08-25T01:44:01;32.45;;;12.75;;
33246;SDS011;19606;50.108;19.804;2022-08-25T01:46:30;30.45;;;13.45;;
33246;SDS011;19606;50.108;19.804;2022-08-25T01:48:56;33.28;;;14.27;;
33246;SDS011;19606;50.108;19.804;2022-08-25T01:51:25;26.05;;;13.43;;
33246;SDS011;19606;50.108;19.804;2022-08-25T01:53:53;32.00;;;15.30;;
33246;SDS011;19606;50.108;19.804;2022-08-25T01:56:19;21.98;;;12.93;;
33246;SDS011;19606;50.108;19.804;2022-08-25T01:58:46;34.90;;;14.60;;
33246;SDS011;19606;50.108;19.804;2022-08-25T02:01:15;33.08;;;15.80;;
33246;SDS011;19606;50.108;19.804;2022-08-25T02:03:42;34.88;;;15.88;;
33246;SDS011;19606;50.108;19.804;2022-08-25T02:06:12;39.15;;;15.60;;
33246;SDS011;19606;50.108;19.804;2022-08-25T02:08:39;28.92;;;15.13;;
33246;SDS011;19606;50.108;19.804;2022-08-25T02:11:07;41.45;;;15.27;;
33246;SDS011;19606;50.108;19.804;2022-08-25T02:13:37;37.53;;;15.45;;
33246;SDS011;19606;50.108;19.804;2022-08-25T02:16:04;38.22;;;15.63;;
33246;SDS011;19606;50.108;19.804;2022-08-25T02:18:30;33.63;;;15.90;;
33246;SDS011;19606;50.108;19.804;2022-08-25T02:20:57;35.60;;;17.77;;
33246;SDS011;19606;50.108;19.804;2022-08-25T02:23:23;43.22;;;17.80;;
33246;SDS011;19606;50.108;19.804;2022-08-25T02:25:49;33.13;;;15.50;;
33246;SDS011;19606;50.108;19.804;2022-08-25T02:28:15;35.42;;;15.65;;
33246;SDS011;19606;50.108;19.804;2022-08-25T02:30:42;35.00;;;16.30;;
33246;SDS011;19606;50.108;19.804;2022-08-25T02:33:08;34.85;;;14.85;;
33246;SDS011;19606;50.108;19.804;2022-08-25T02:35:34;39.72;;;15.75;;
33246;SDS011;19606;50.108;19.804;2022-08-25T02:38:00;39.33;;;16.17;;
33246;SDS011;19606;50.108;19.804;2022-08-25T02:40:26;41.83;;;17.25;;
33246;SDS011;19606;50.108;19.804;2022-08-25T02:42:52;37.00;;;13.98;;
33246;SDS011;19606;50.108;19.804;2022-08-25T02:45:19;38.10;;;14.68;;
33246;SDS011;19606;50.108;19.804;2022-08-25T02:47:45;24.95;;;12.68;;
33246;SDS011;19606;50.108;19.804;2022-08-25T02:50:11;27.33;;;12.70;;
33246;SDS011;19606;50.108;19.804;2022-08-25T02:52:38;35.47;;;15.35;;
33246;SDS011;19606;50.108;19.804;2022-08-25T02:55:05;31.30;;;13.43;;
33246;SDS011;19606;50.108;19.804;2022-08-25T02:57:33;40.08;;;16.27;;
33246;SDS011;19606;50.108;19.804;2022-08-25T03:00:00;40.83;;;16.00;;
33246;SDS011;19606;50.108;19.804;2022-08-25T03:02:26;32.22;;;15.80;;
33246;SDS011;19606;50.108;19.804;2022-08-25T03:04:52;35.75;;;16.83;;
33246;SDS011;19606;50.108;19.804;2022-08-25T03:07:19;44.08;;;17.75;;
33246;SDS011;19606;50.108;19.804;2022-08-25T03:09:45;37.90;;;17.42;;
33246;SDS011;19606;50.108;19.804;2022-08-25T03:12:11;38.22;;;15.48;;
33246;SDS011;19606;50.108;19.804;2022-08-25T03:14:38;40.85;;;16.10;;
33246;SDS011;19606;50.108;19.804;2022-08-25T03:17:05;36.22;;;15.75;;
33246;SDS011;19606;50.108;19.804;2022-08-25T03:19:31;37.88;;;17.60;;
33246;SDS011;19606;50.108;19.804;2022-08-25T03:21:57;37.92;;;16.45;;
33246;SDS011;19606;50.108;19.804;2022-08-25T03:24:24;27.13;;;13.77;;
33246;SDS011;19606;50.108;19.804;2022-08-25T03:26:50;32.60;;;13.43;;
33246;SDS011;19606;50.108;19.804;2022-08-25T03:29:24;33.63;;;13.25;;
33246;SDS011;19606;50.108;19.804;2022-08-25T03:31:51;29.92;;;13.23;;
33246;SDS011;19606;50.108;19.804;2022-08-25T03:34:18;30.02;;;14.23;;
33246;SDS011;19606;50.108;19.804;2022-08-25T03:36:46;35.65;;;13.82;;
33246;SDS011;19606;50.108;19.804;2022-08-25T03:39:12;34.38;;;14.88;;
33246;SDS011;19606;50.108;19.804;2022-08-25T03:41:39;30.08;;;13.13;;
33246;SDS011;19606;50.108;19.804;2022-08-25T03:44:06;35.28;;;15.57;;
33246;SDS011;19606;50.108;19.804;2022-08-25T03:46:36;40.85;;;16.63;;
33246;SDS011;19606;50.108;19.804;2022-08-25T03:49:03;31.33;;;15.23;;
33246;SDS011;19606;50.108;19.804;2022-08-25T03:51:36;40.47;;;18.02;;
33246;SDS011;19606;50.108;19.804;2022-08-25T03:54:04;44.33;;;17.05;;
33246;SDS011;19606;50.108;19.804;2022-08-25T03:56:31;38.72;;;15.95;;
33246;SDS011;19606;50.108;19.804;2022-08-25T03:58:57;55.97;;;18.23;;
33246;SDS011;19606;50.108;19.804;2022-08-25T04:01:23;52.67;;;18.27;;
33246;SDS011;19606;50.108;19.804;2022-08-25T04:03:49;45.25;;;19.52;;
33246;SDS011;19606;50.108;19.804;2022-08-25T04:06:16;49.83;;;19.85;;
33246;SDS011;19606;50.108;19.804;2022-08-25T04:08:43;62.13;;;21.58;;
33246;SDS011;19606;50.108;19.804;2022-08-25T04:11:11;65.47;;;21.25;;
33246;SDS011;19606;50.108;19.804;2022-08-25T04:13:38;71.13;;;21.63;;
33246;SDS011;19606;50.108;19.804;2022-08-25T04:16:10;50.83;;;19.08;;
33246;SDS011;19606;50.108;19.804;2022-08-25T04:18:38;36.60;;;18.13;;
33246;SDS011;19606;50.108;19.804;2022-08-25T04:21:05;50.88;;;18.48;;
33246;SDS011;19606;50.108;19.804;2022-08-25T04:23:33;45.10;;;20.02;;
33246;SDS011;19606;50.108;19.804;2022-08-25T04:26:00;47.33;;;20.33;;
33246;SDS011;19606;50.108;19.804;2022-08-25T04:28:26;58.88;;;20.45;;
33246;SDS011;19606;50.108;19.804;2022-08-25T04:30:53;82.22;;;22.90;;
33246;SDS011;19606;50.108;19.804;2022-08-25T04:33:19;81.63;;;22.85;;
33246;SDS011;19606;50.108;19.804;2022-08-25T04:35:46;95.28;;;26.95;;
33246;SDS011;19606;50.108;19.804;2022-08-25T04:38:12;103.80;;;34.00;;
33246;SDS011;19606;50.108;19.804;2022-08-25T04:40:38;94.25;;;33.55;;
33246;SDS011;19606;50.108;19.804;2022-08-25T04:43:04;90.80;;;35.85;;
33246;SDS011;19606;50.108;19.804;2022-08-25T04:45:30;81.63;;;28.90;;
33246;SDS011;19606;50.108;19.804;2022-08-25T04:47:56;65.07;;;27.13;;
33246;SDS011;19606;50.108;19.804;2022-08-25T04:50:24;48.72;;;23.30;;
33246;SDS011;19606;50.108;19.804;2022-08-25T04:52:50;47.63;;;22.17;;
33246;SDS011;19606;50.108;19.804;2022-08-25T04:55:17;47.33;;;21.40;;
33246;SDS011;19606;50.108;19.804;2022-08-25T04:57:43;40.55;;;20.15;;
33246;SDS011;19606;50.108;19.804;2022-08-25T05:00:09;37.08;;;19.33;;
33246;SDS011;19606;50.108;19.804;2022-08-25T05:02:36;39.15;;;18.25;;
33246;SDS011;19606;50.108;19.804;2022-08-25T05:05:02;33.97;;;17.80;;
33246;SDS011;19606;50.108;19.804;2022-08-25T05:07:28;41.35;;;18.60;;
33246;SDS011;19606;50.108;19.804;2022-08-25T05:09:55;35.03;;;16.50;;
33246;SDS011;19606;50.108;19.804;2022-08-25T05:12:21;33.85;;;16.48;;
33246;SDS011;19606;50.108;19.804;2022-08-25T05:14:47;27.17;;;13.98;;
33246;SDS011;19606;50.108;19.804;2022-08-25T05:17:13;25.52;;;14.30;;
33246;SDS011;19606;50.108;19.804;2022-08-25T05:19:39;26.17;;;12.52;;
33246;SDS011;19606;50.108;19.804;2022-08-25T05:22:05;24.25;;;14.30;;
33246;SDS011;19606;50.108;19.804;2022-08-25T05:24:31;26.38;;;14.48;;
33246;SDS011;19606;50.108;19.804;2022-08-25T05:26:57;21.95;;;11.18;;
33246;SDS011;19606;50.108;19.804;2022-08-25T05:29:23;23.20;;;11.70;;
33246;SDS011;19606;50.108;19.804;2022-08-25T05:31:49;24.17;;;11.05;;
33246;SDS011;19606;50.108;19.804;2022-08-25T05:34:16;18.10;;;11.70;;
33246;SDS011;19606;50.108;19.804;2022-08-25T05:36:42;20.42;;;10.25;;
33246;SDS011;19606;50.108;19.804;2022-08-25T05:39:09;26.13;;;12.00;;
33246;SDS011;19606;50.108;19.804;2022-08-25T05:41:35;19.90;;;10.60;;
33246;SDS011;19606;50.108;19.804;2022-08-25T05:44:01;25.00;;;10.77;;
33246;SDS011;19606;50.108;19.804;2022-08-25T05:46:27;20.45;;;9.48;;
33246;SDS011;19606;50.108;19.804;2022-08-25T05:48:54;21.15;;;9.48;;
33246;SDS011;19606;50.108;19.804;2022-08-25T05:51:21;18.48;;;8.30;;
33246;SDS011;19606;50.108;19.804;2022-08-25T05:53:48;14.65;;;7.70;;
33246;SDS011;19606;50.108;19.804;2022-08-25T05:56:14;30.05;;;8.52;;
33246;SDS011;19606;50.108;19.804;2022-08-25T05:58:41;18.35;;;8.57;;
33246;SDS011;19606;50.108;19.804;2022-08-25T06:01:08;17.55;;;7.82;;
33246;SDS011;19606;50.108;19.804;2022-08-25T06:04:04;31.73;;;8.75;;
33246;SDS011;19606;50.108;19.804;2022-08-25T06:06:30;19.60;;;7.80;;
33246;SDS011;19606;50.108;19.804;2022-08-25T06:08:56;30.55;;;8.32;;
33246;SDS011;19606;50.108;19.804;2022-08-25T06:11:22;19.92;;;7.60;;
33246;SDS011;19606;50.108;19.804;2022-08-25T06:13:48;24.38;;;8.25;;
33246;SDS011;19606;50.108;19.804;2022-08-25T06:16:14;19.45;;;7.03;;
33246;SDS011;19606;50.108;19.804;2022-08-25T06:18:40;32.90;;;7.63;;
33246;SDS011;19606;50.108;19.804;2022-08-25T06:21:07;24.58;;;8.07;;
33246;SDS011;19606;50.108;19.804;2022-08-25T06:23:35;24.73;;;8.27;;
33246;SDS011;19606;50.108;19.804;2022-08-25T06:26:01;21.92;;;6.82;;
33246;SDS011;19606;50.108;19.804;2022-08-25T06:28:27;26.77;;;6.75;;
33246;SDS011;19606;50.108;19.804;2022-08-25T06:30:57;32.83;;;8.43;;
33246;SDS011;19606;50.108;19.804;2022-08-25T06:33:24;23.27;;;8.23;;
33246;SDS011;19606;50.108;19.804;2022-08-25T06:35:52;27.88;;;8.48;;
33246;SDS011;19606;50.108;19.804;2022-08-25T06:38:18;15.68;;;6.57;;
33246;SDS011;19606;50.108;19.804;2022-08-25T06:40:46;21.02;;;7.22;;
33246;SDS011;19606;50.108;19.804;2022-08-25T06:43:12;27.02;;;7.43;;
33246;SDS011;19606;50.108;19.804;2022-08-25T06:45:38;31.88;;;10.55;;
33246;SDS011;19606;50.108;19.804;2022-08-25T06:48:04;33.67;;;10.05;;
33246;SDS011;19606;50.108;19.804;2022-08-25T06:50:30;26.42;;;10.50;;
33246;SDS011;19606;50.108;19.804;2022-08-25T06:52:56;23.38;;;10.23;;
33246;SDS011;19606;50.108;19.804;2022-08-25T06:55:22;25.15;;;10.25;;
33246;SDS011;19606;50.108;19.804;2022-08-25T06:57:51;31.88;;;10.35;;
33246;SDS011;19606;50.108;19.804;2022-08-25T07:00:17;27.67;;;9.57;;
33246;SDS011;19606;50.108;19.804;2022-08-25T07:02:43;34.50;;;10.63;;
33246;SDS011;19606;50.108;19.804;2022-08-25T07:05:11;36.03;;;11.07;;
33246;SDS011;19606;50.108;19.804;2022-08-25T07:07:37;32.00;;;10.98;;
33246;SDS011;19606;50.108;19.804;2022-08-25T07:10:04;40.85;;;11.70;;
33246;SDS011;19606;50.108;19.804;2022-08-25T07:12:30;42.05;;;10.18;;
33246;SDS011;19606;50.108;19.804;2022-08-25T07:14:56;27.40;;;9.85;;
33246;SDS011;19606;50.108;19.804;2022-08-25T07:17:22;25.52;;;8.95;;
33246;SDS011;19606;50.108;19.804;2022-08-25T07:19:48;27.17;;;8.60;;
33246;SDS011;19606;50.108;19.804;2022-08-25T07:22:14;29.20;;;8.40;;
33246;SDS011;19606;50.108;19.804;2022-08-25T07:24:40;28.38;;;9.02;;
33246;SDS011;19606;50.108;19.804;2022-08-25T07:27:07;32.90;;;8.98;;
33246;SDS011;19606;50.108;19.804;2022-08-25T07:29:33;27.25;;;8.57;;
33246;SDS011;19606;50.108;19.804;2022-08-25T07:32:03;31.25;;;8.60;;
33246;SDS011;19606;50.108;19.804;2022-08-25T07:34:29;36.78;;;9.85;;
33246;SDS011;19606;50.108;19.804;2022-08-25T07:37:15;30.88;;;9.07;;
33246;SDS011;19606;50.108;19.804;2022-08-25T07:39:41;27.70;;;8.77;;
33246;SDS011;19606;50.108;19.804;2022-08-25T07:42:07;33.88;;;9.05;;
33246;SDS011;19606;50.108;19.804;2022-08-25T07:44:33;29.67;;;8.88;;
33246;SDS011;19606;50.108;19.804;2022-08-25T07:46:59;28.90;;;8.93;;
33246;SDS011;19606;50.108;19.804;2022-08-25T07:49:26;26.88;;;8.75;;
33246;SDS011;19606;50.108;19.804;2022-08-25T07:51:52;33.35;;;8.32;;
33246;SDS011;19606;50.108;19.804;2022-08-25T07:54:19;29.80;;;8.85;;
33246;SDS011;19606;50.108;19.804;2022-08-25T07:56:45;31.08;;;9.40;;
33246;SDS011;19606;50.108;19.804;2022-08-25T07:59:11;33.15;;;8.65;;
33246;SDS011;19606;50.108;19.804;2022-08-25T08:01:37;28.30;;;8.45;;
33246;SDS011;19606;50.108;19.804;2022-08-25T08:04:04;36.00;;;8.75;;
33246;SDS011;19606;50.108;19.804;2022-08-25T08:06:30;36.10;;;9.23;;
33246;SDS011;19606;50.108;19.804;2022-08-25T08:08:57;29.95;;;8.15;;
33246;SDS011;19606;50.108;19.804;2022-08-25T08:11:31;34.80;;;8.80;;
33246;SDS011;19606;50.108;19.804;2022-08-25T08:13:59;32.05;;;7.85;;
33246;SDS011;19606;50.108;19.804;2022-08-25T08:16:26;29.17;;;7.97;;
33246;SDS011;19606;50.108;19.804;2022-08-25T08:18:52;28.40;;;7.43;;
33246;SDS011;19606;50.108;19.804;2022-08-25T08:21:21;30.80;;;8.55;;
33246;SDS011;19606;50.108;19.804;2022-08-25T08:23:47;33.25;;;7.40;;
33246;SDS011;19606;50.108;19.804;2022-08-25T08:26:14;31.35;;;8.18;;
33246;SDS011;19606;50.108;19.804;2022-08-25T08:28:40;32.20;;;8.10;;
33246;SDS011;19606;50.108;19.804;2022-08-25T08:31:06;31.60;;;7.25;;
33246;SDS011;19606;50.108;19.804;2022-08-25T08:33:32;39.05;;;8.38;;
33246;SDS011;19606;50.108;19.804;2022-08-25T08:35:59;39.90;;;8.25;;
33246;SDS011;19606;50.108;19.804;2022-08-25T08:38:26;34.72;;;9.32;;
33246;SDS011;19606;50.108;19.804;2022-08-25T08:41:56;43.28;;;9.68;;
33246;SDS011;19606;50.108;19.804;2022-08-25T08:52:22;43.75;;;9.13;;
33246;SDS011;19606;50.108;19.804;2022-08-25T08:54:51;33.78;;;9.15;;
33246;SDS011;19606;50.108;19.804;2022-08-25T08:57:21;36.88;;;8.57;;
33246;SDS011;19606;50.108;19.804;2022-08-25T08:59:53;37.97;;;8.85;;
33246;SDS011;19606;50.108;19.804;2022-08-25T09:02:24;37.72;;;8.88;;
33246;SDS011;19606;50.108;19.804;2022-08-25T09:07:18;43.28;;;9.25;;
33246;SDS011;19606;50.108;19.804;2022-08-25T09:09:46;40.80;;;7.85;;
33246;SDS011;19606;50.108;19.804;2022-08-25T09:22:44;40.13;;;8.85;;
33246;SDS011;19606;50.108;19.804;2022-08-25T09:25:16;33.20;;;8.77;;
33246;SDS011;19606;50.108;19.804;2022-08-25T09:30:15;46.58;;;8.65;;
33246;SDS011;19606;50.108;19.804;2022-08-25T09:32:43;36.83;;;7.63;;
33246;SDS011;19606;50.108;19.804;2022-08-25T09:35:15;34.60;;;7.50;;
33246;SDS011;19606;50.108;19.804;2022-08-25T09:37:53;32.63;;;7.75;;
33246;SDS011;19606;50.108;19.804;2022-08-25T09:40:19;29.10;;;7.30;;
33246;SDS011;19606;50.108;19.804;2022-08-25T09:42:47;37.33;;;8.10;;
33246;SDS011;19606;50.108;19.804;2022-08-25T09:45:14;26.45;;;8.07;;
33246;SDS011;19606;50.108;19.804;2022-08-25T09:47:43;39.67;;;8.02;;
33246;SDS011;19606;50.108;19.804;2022-08-25T09:50:16;29.87;;;7.70;;
33246;SDS011;19606;50.108;19.804;2022-08-25T09:52:42;34.83;;;8.52;;
33246;SDS011;19606;50.108;19.804;2022-08-25T10:02:37;29.92;;;8.68;;
33246;SDS011;19606;50.108;19.804;2022-08-25T10:05:21;33.38;;;7.70;;
33246;SDS011;19606;50.108;19.804;2022-08-25T10:07:49;36.88;;;7.22;;
33246;SDS011;19606;50.108;19.804;2022-08-25T10:10:19;30.08;;;7.38;;
33246;SDS011;19606;50.108;19.804;2022-08-25T10:12:47;35.88;;;6.93;;
33246;SDS011;19606;50.108;19.804;2022-08-25T10:17:41;37.28;;;8.00;;
33246;SDS011;19606;50.108;19.804;2022-08-25T10:22:37;27.17;;;8.30;;
33246;SDS011;19606;50.108;19.804;2022-08-25T10:25:04;36.63;;;8.25;;
33246;SDS011;19606;50.108;19.804;2022-08-25T10:30:05;36.75;;;8.85;;
33246;SDS011;19606;50.108;19.804;2022-08-25T10:34:58;38.58;;;7.97;;
33246;SDS011;19606;50.108;19.804;2022-08-25T10:45:04;30.48;;;7.63;;
33246;SDS011;19606;50.108;19.804;2022-08-25T10:48:41;33.55;;;8.25;;
33246;SDS011;19606;50.108;19.804;2022-08-25T10:50:43;34.45;;;8.60;;
33246;SDS011;19606;50.108;19.804;2022-08-25T10:55:42;29.25;;;8.10;;
33246;SDS011;19606;50.108;19.804;2022-08-25T10:58:18;34.58;;;7.45;;
33246;SDS011;19606;50.108;19.804;2022-08-25T11:01:07;30.85;;;8.23;;
33246;SDS011;19606;50.108;19.804;2022-08-25T11:06:29;37.88;;;7.65;;
33246;SDS011;19606;50.108;19.804;2022-08-25T11:09:02;42.80;;;8.13;;
33246;SDS011;19606;50.108;19.804;2022-08-25T11:11:30;33.47;;;8.37;;
33246;SDS011;19606;50.108;19.804;2022-08-25T11:13:59;30.55;;;7.45;;
33246;SDS011;19606;50.108;19.804;2022-08-25T11:16:43;33.08;;;7.35;;
33246;SDS011;19606;50.108;19.804;2022-08-25T11:26:39;32.22;;;8.07;;
33246;SDS011;19606;50.108;19.804;2022-08-25T11:29:10;38.05;;;8.10;;
33246;SDS011;19606;50.108;19.804;2022-08-25T11:31:38;29.98;;;8.20;;
33246;SDS011;19606;50.108;19.804;2022-08-25T11:34:07;38.63;;;8.80;;
33246;SDS011;19606;50.108;19.804;2022-08-25T11:36:35;40.03;;;9.23;;
33246;SDS011;19606;50.108;19.804;2022-08-25T11:41:46;42.05;;;12.48;;
33246;SDS011;19606;50.108;19.804;2022-08-25T11:51:51;29.90;;;6.97;;
33246;SDS011;19606;50.108;19.804;2022-08-25T12:02:05;30.63;;;8.07;;
33246;SDS011;19606;50.108;19.804;2022-08-25T12:07:19;36.65;;;7.13;;
33246;SDS011;19606;50.108;19.804;2022-08-25T12:15:12;26.80;;;7.50;;
33246;SDS011;19606;50.108;19.804;2022-08-25T12:17:38;28.02;;;8.20;;
33246;SDS011;19606;50.108;19.804;2022-08-25T12:20:04;32.28;;;8.68;;
33246;SDS011;19606;50.108;19.804;2022-08-25T12:25:02;34.92;;;8.88;;
33246;SDS011;19606;50.108;19.804;2022-08-25T12:30:00;26.55;;;7.38;;
33246;SDS011;19606;50.108;19.804;2022-08-25T12:37:52;30.55;;;7.85;;
33246;SDS011;19606;50.108;19.804;2022-08-25T12:40:24;38.95;;;8.15;;
33246;SDS011;19606;50.108;19.804;2022-08-25T12:42:59;34.45;;;7.93;;
33246;SDS011;19606;50.108;19.804;2022-08-25T12:45:31;35.45;;;7.25;;
33246;SDS011;19606;50.108;19.804;2022-08-25T12:50:43;33.33;;;7.47;;
33246;SDS011;19606;50.108;19.804;2022-08-25T12:55:44;42.47;;;8.23;;
33246;SDS011;19606;50.108;19.804;2022-08-25T12:58:11;27.08;;;6.95;;
33246;SDS011;19606;50.108;19.804;2022-08-25T13:00:54;35.88;;;7.22;;
33246;SDS011;19606;50.108;19.804;2022-08-25T13:08:56;38.20;;;7.88;;
33246;SDS011;19606;50.108;19.804;2022-08-25T13:11:36;34.92;;;7.78;;
33246;SDS011;19606;50.108;19.804;2022-08-25T13:14:16;34.75;;;7.82;;
33246;SDS011;19606;50.108;19.804;2022-08-25T13:16:53;32.65;;;6.95;;
33246;SDS011;19606;50.108;19.804;2022-08-25T13:19:20;40.05;;;7.88;;
33246;SDS011;19606;50.108;19.804;2022-08-25T13:21:46;36.78;;;7.97;;
33246;SDS011;19606;50.108;19.804;2022-08-25T13:26:55;38.00;;;8.13;;
33246;SDS011;19606;50.108;19.804;2022-08-25T13:29:23;37.00;;;7.95;;
33246;SDS011;19606;50.108;19.804;2022-08-25T13:32:12;27.30;;;6.78;;
33246;SDS011;19606;50.108;19.804;2022-08-25T13:34:36;50.85;;;10.57;;
33246;SDS011;19606;50.108;19.804;2022-08-25T13:37:10;41.33;;;8.63;;
33246;SDS011;19606;50.108;19.804;2022-08-25T13:42:40;40.60;;;8.07;;
33246;SDS011;19606;50.108;19.804;2022-08-25T13:52:39;42.05;;;8.82;;
33246;SDS011;19606;50.108;19.804;2022-08-25T13:55:06;35.95;;;8.25;;
33246;SDS011;19606;50.108;19.804;2022-08-25T13:57:32;37.17;;;8.43;;
33246;SDS011;19606;50.108;19.804;2022-08-25T14:00:06;36.90;;;8.85;;
33246;SDS011;19606;50.108;19.804;2022-08-25T14:05:08;35.47;;;7.03;;
33246;SDS011;19606;50.108;19.804;2022-08-25T14:07:35;39.40;;;8.63;;
33246;SDS011;19606;50.108;19.804;2022-08-25T14:12:41;39.78;;;7.53;;
33246;SDS011;19606;50.108;19.804;2022-08-25T14:15:11;36.05;;;7.50;;
33246;SDS011;19606;50.108;19.804;2022-08-25T14:17:39;26.33;;;7.65;;
33246;SDS011;19606;50.108;19.804;2022-08-25T14:20:13;33.55;;;7.47;;
33246;SDS011;19606;50.108;19.804;2022-08-25T14:22:40;35.33;;;7.38;;
33246;SDS011;19606;50.108;19.804;2022-08-25T14:25:06;35.95;;;7.15;;
33246;SDS011;19606;50.108;19.804;2022-08-25T14:27:32;37.22;;;7.70;;
33246;SDS011;19606;50.108;19.804;2022-08-25T14:29:58;34.03;;;8.80;;
33246;SDS011;19606;50.108;19.804;2022-08-25T14:32:24;31.08;;;6.55;;
33246;SDS011;19606;50.108;19.804;2022-08-25T14:34:51;42.38;;;8.32;;
33246;SDS011;19606;50.108;19.804;2022-08-25T14:37:18;31.77;;;7.18;;
33246;SDS011;19606;50.108;19.804;2022-08-25T14:39:44;34.35;;;6.95;;
33246;SDS011;19606;50.108;19.804;2022-08-25T14:42:10;36.72;;;7.53;;
33246;SDS011;19606;50.108;19.804;2022-08-25T14:44:37;35.92;;;8.32;;
33246;SDS011;19606;50.108;19.804;2022-08-25T14:47:03;23.90;;;7.45;;
33246;SDS011;19606;50.108;19.804;2022-08-25T14:49:32;28.70;;;7.60;;
33246;SDS011;19606;50.108;19.804;2022-08-25T14:52:00;34.05;;;8.38;;
33246;SDS011;19606;50.108;19.804;2022-08-25T14:54:29;33.92;;;7.13;;
33246;SDS011;19606;50.108;19.804;2022-08-25T14:56:55;45.78;;;7.13;;
33246;SDS011;19606;50.108;19.804;2022-08-25T14:59:21;25.20;;;7.28;;
33246;SDS011;19606;50.108;19.804;2022-08-25T15:01:47;29.55;;;7.97;;
33246;SDS011;19606;50.108;19.804;2022-08-25T15:04:21;46.80;;;8.65;;
33246;SDS011;19606;50.108;19.804;2022-08-25T15:06:48;35.45;;;8.10;;
33246;SDS011;19606;50.108;19.804;2022-08-25T15:09:16;34.55;;;8.25;;
33246;SDS011;19606;50.108;19.804;2022-08-25T15:11:43;27.08;;;7.63;;
33246;SDS011;19606;50.108;19.804;2022-08-25T15:14:10;30.50;;;7.30;;
33246;SDS011;19606;50.108;19.804;2022-08-25T15:16:40;47.00;;;7.80;;
33246;SDS011;19606;50.108;19.804;2022-08-25T15:19:08;37.88;;;8.07;;
33246;SDS011;19606;50.108;19.804;2022-08-25T15:21:35;47.85;;;8.02;;
33246;SDS011;19606;50.108;19.804;2022-08-25T15:24:02;38.15;;;8.00;;
33246;SDS011;19606;50.108;19.804;2022-08-25T15:26:28;31.73;;;7.63;;
33246;SDS011;19606;50.108;19.804;2022-08-25T15:28:55;48.58;;;7.55;;
33246;SDS011;19606;50.108;19.804;2022-08-25T15:31:21;25.63;;;6.65;;
33246;SDS011;19606;50.108;19.804;2022-08-25T15:33:47;34.45;;;8.40;;
33246;SDS011;19606;50.108;19.804;2022-08-25T15:36:14;33.92;;;7.55;;
33246;SDS011;19606;50.108;19.804;2022-08-25T15:38:41;32.88;;;7.88;;
33246;SDS011;19606;50.108;19.804;2022-08-25T15:41:08;38.33;;;9.38;;
33246;SDS011;19606;50.108;19.804;2022-08-25T15:43:34;37.85;;;8.57;;
33246;SDS011;19606;50.108;19.804;2022-08-25T15:46:01;35.38;;;7.97;;
33246;SDS011;19606;50.108;19.804;2022-08-25T15:48:28;30.88;;;7.53;;
33246;SDS011;19606;50.108;19.804;2022-08-25T15:50:55;39.05;;;8.23;;
33246;SDS011;19606;50.108;19.804;2022-08-25T15:53:22;44.95;;;9.13;;
33246;SDS011;19606;50.108;19.804;2022-08-25T15:55:50;32.35;;;8.85;;
33246;SDS011;19606;50.108;19.804;2022-08-25T15:58:18;48.75;;;9.38;;
33246;SDS011;19606;50.108;19.804;2022-08-25T16:00:45;33.97;;;8.48;;
33246;SDS011;19606;50.108;19.804;2022-08-25T16:03:11;32.80;;;8.48;;
33246;SDS011;19606;50.108;19.804;2022-08-25T16:05:38;42.75;;;9.57;;
33246;SDS011;19606;50.108;19.804;2022-08-25T16:08:05;39.08;;;9.38;;
33246;SDS011;19606;50.108;19.804;2022-08-25T16:10:32;32.15;;;8.52;;
33246;SDS011;19606;50.108;19.804;2022-08-25T16:12:59;44.38;;;9.48;;
33246;SDS011;19606;50.108;19.804;2022-08-25T16:15:25;33.45;;;9.20;;
33246;SDS011;19606;50.108;19.804;2022-08-25T16:17:51;45.22;;;10.73;;
33246;SDS011;19606;50.108;19.804;2022-08-25T16:20:18;34.38;;;9.52;;
33246;SDS011;19606;50.108;19.804;2022-08-25T16:22:45;39.72;;;13.98;;
33246;SDS011;19606;50.108;19.804;2022-08-25T16:25:11;43.35;;;12.90;;
33246;SDS011;19606;50.108;19.804;2022-08-25T16:27:37;44.10;;;11.55;;
33246;SDS011;19606;50.108;19.804;2022-08-25T16:30:04;44.08;;;9.40;;
33246;SDS011;19606;50.108;19.804;2022-08-25T16:32:30;40.75;;;9.18;;